Aeroporto :
LOGIN :

Iscrizione | Disclaimer

   EN    FR    IT 

 










Sommario :    VFR   VFR Marginale   IFR   IFR Intensivo   IFR Molto Intensivo
Visibilità : 
Base nubi : 
>= 8 km
>= 3000ft
5 / 8 km
1000 / 3000 ft
1500m / 5 km
500 / 1000 ft
800 / 1500m
200 / 500 ft
< 800m
< 200 ft
Simboli :   Temporali  Nebbia  Neve Forte  Precipitazioni Forti  Vento > 20 kt
SIGMETs :   Varie  Temporali  Ghiacco  Turbolenza  Onda orograficha  Ceneri Vulcaniche






- Altitudine del aeroporto : 392 ft
- Codice IATA : CDG


LFPG - Paris-Aeroport Charles De Gaulle

ULTIMO METAR :
  • 200800Z 01009KT 360V060 9999 -RA FEW014 BKN080 10/09 Q1006 TEMPO 4000 RA BKN007

METARs OBSOLETI :
  • 200730Z 01009KT 330V050 9000 RA FEW014 BKN080 10/09 Q1006 TEMPO 4000 RA BKN007
  • 200700Z 02007KT 350V100 7000 RA FEW014 BKN048 10/09 Q1006 TEMPO 4000 RA BKN007
  • 200630Z 01006KT 340V090 7000 -RA SCT020 BKN047 10/09 Q1006 TEMPO 4000 RA BKN007
  • 200600Z 36008KT 340V090 6000 -RA FEW002 BKN083 11/10 Q1005 TEMPO 4000 RA BKN003
  • 200530Z 01006KT 5000 -RA BR FEW002 BKN044 11/10 Q1006 TEMPO 4000 RA BKN003

TAF TAF LFPG
Valido dal 20 a 06 ore il 21 a 12 ore UTC


200500Z 2006/2112 03010KT 6000 SCT005 BKN060 TX13/2012Z TN11/2105Z
PROB40
TEMPO 2006/2011 4000 RA BKN003
BECMG 2011/2013 BKN015 BKN040
BECMG 2019/2021 BKN006
TEMPO 2021/2024 4000 RA BKN004
BECMG 2103/2105 22010KT
PROB40
TEMPO 2106/2109 2500 RA BKN002
ATIS : +33 1 48 62 10 92



MetMap, La meteo Aeronautica in un colpo d'occhio ! - Copyright ORBIFLY Dicembre 2007 - Disclaimer

ORBIFLY MET'MAP TEAM :

Programmazione e sviluppo : Alexandra Zaïnal
Concezione e sviluppo : Baudouin d'Aumeries
Co-Programmazione e sviluppo : Marc-Olivier Méhu
Supporto tecnico e logistico : Manuel Goepfert
Aiuto per la traduzione : Arnaldo La Scala

Contatto : metmap@orbifly.com




FONTI E CREDITI :

   NOAA